Skip Navigation Links
NOAA logo - Click to go to the NOAA homepage
NOAA's National Weather Service
Alaska Aviation Weather Unit
  NWS logo - Click to go to the NWS homepage
Left Navbar Graphic     21 AKDT = 05 GMT

   
NOAA is celebrating 200 years of science, service, and stewardship. Visit the NOAA 200th celebration Web site to learn more.
USA.gov is the U.S. Government's official Web portal to all Federal, state and local government Web resources and services.
Facebook
NWS on Facebook

AAWU Home :: Display TAF Add Bookmark
TAF PACD 262343Z 2700/2724 15012KT P6SM VCSH SCT025 BKN035
     FM270600 16008KT P6SM SCT035 BKN060
     FM271400 16009KT P6SM -SHRA BKN025=
METAR PACD 262353Z 17019G25KT 8SM SCT037 BKN044 OVC070 08/01 A2950=

METAR PACD 270053Z AUTO 17020G26KT 8SM FEW035 BKN050 OVC070 07/02
     A2950=

METAR PACD 270153Z AUTO 15018KT 5SM HZ FEW039 BKN070 BKN110 07/02
     A2951=

PACD 270203Z AUTO 16017G25KT 6SM HZ FEW002 FEW039 BKN070 07/02
A2951=

METAR PACD 270253Z AUTO 15017KT 9SM CLR 07/01 A2952=

METAR PACD 270353Z AUTO 15015G25KT 10SM CLR 07/01 A2953=

METAR PACD 270453Z AUTO 14013KT 10SM BKN090 05/01 A2955 RMK AO2 SLP006
     T00500006 TSNO=


NOAA's National Weather Service
Alaska Aviation Weather Unit
6930 Sand Lake Road
Anchorage, AK 99502-1845
Disclaimer
Credits
Glossary
Privacy Policy
About Us
Career Opportunities
Contact AAWU Internet Services Site last modified: April, 17th 2012